createdAt,value
2023-03-31T00:01:26.113Z,50317.59
2023-03-31T00:04:02.377Z,50316.38
2023-03-31T00:06:41.952Z,50309.59
2023-03-31T00:09:19.085Z,50320.38
2023-03-31T00:11:47.235Z,50332.38
2023-03-31T00:14:18.098Z,50321.18
2023-03-31T00:16:46.454Z,50331.18
2023-03-31T00:19:21.675Z,50329.18
2023-03-31T00:21:51.822Z,50319.98
2023-03-31T00:24:20.032Z,50330.38
2023-03-31T00:26:48.269Z,50317.19
2023-03-31T00:29:16.575Z,50348.77
2023-03-31T00:31:45.045Z,50327.58
2023-03-31T00:34:13.792Z,50312.39
2023-03-31T00:36:46.535Z,50304.79
2023-03-31T00:39:19.421Z,50323.58
2023-03-31T00:41:47.581Z,50323.18
2023-03-31T00:44:19.186Z,50326.78
2023-03-31T00:46:57.264Z,50316.79
2023-03-31T00:49:31.583Z,50327.58
2023-03-31T00:52:23.938Z,50329.18
2023-03-31T00:54:59.223Z,50344.38
2023-03-31T00:57:29.729Z,50326.38
2023-03-31T01:00:02.037Z,50319.59
2023-03-31T01:02:30.418Z,50328.38
2023-03-31T01:05:02.533Z,50329.58
2023-03-31T01:07:46.448Z,50344.38
2023-03-31T01:10:14.794Z,50340.38
2023-03-31T01:12:49.007Z,50321.98
2023-03-31T01:15:18.298Z,50328.38
2023-03-31T01:17:50.521Z,50327.18
2023-03-31T01:20:24.674Z,50331.18
2023-03-31T01:23:21.277Z,50328.38
2023-03-31T01:26:12.522Z,50317.98
2023-03-31T01:29:16.278Z,50338.77
2023-03-31T01:31:54.885Z,50336.38
2023-03-31T01:34:48.105Z,50325.98
2023-03-31T01:37:41.219Z,50347.98
2023-03-31T01:40:47.128Z,50334.38
2023-03-31T01:43:47.734Z,50331.57
2023-03-31T01:46:29.869Z,50338.38
2023-03-31T01:49:16.726Z,50318.79
2023-03-31T01:52:11.414Z,50335.18
2023-03-31T01:54:52.933Z,50327.18
2023-03-31T01:57:37.169Z,50325.18
2023-03-31T02:00:20.469Z,50333.18
2023-03-31T02:03:23.303Z,50337.58
2023-03-31T02:06:00.009Z,50342.77
2023-03-31T02:08:35.583Z,50343.18
2023-03-31T02:11:04.020Z,50354.77
2023-03-31T02:13:35.144Z,50325.98
2023-03-31T02:16:11.933Z,50329.58
2023-03-31T02:18:42.665Z,50344.38
2023-03-31T02:21:14.735Z,50346.38
2023-03-31T02:23:46.063Z,50348.38
2023-03-31T02:26:26.097Z,50331.98
2023-03-31T02:28:54.581Z,50332.38
2023-03-31T02:31:48.429Z,50327.98
2023-03-31T02:34:16.907Z,50345.98
2023-03-31T02:36:45.916Z,50335.57
2023-03-31T02:39:20.300Z,50322.38
2023-03-31T02:41:48.645Z,50337.18
2023-03-31T02:44:18.717Z,50334.38
2023-03-31T02:46:48.364Z,50343.58
2023-03-31T02:49:19.084Z,50324.78
2023-03-31T02:52:07.683Z,50341.98
2023-03-31T02:55:14.279Z,50331.58
2023-03-31T02:57:52.008Z,50333.58
2023-03-31T03:00:36.939Z,50334.78
2023-03-31T03:03:20.532Z,50336.38
2023-03-31T03:06:05.996Z,50320.79
2023-03-31T03:09:02.659Z,50321.58
2023-03-31T03:11:49.968Z,50338.38
2023-03-31T03:15:01.258Z,50326.78
2023-03-31T03:17:36.079Z,50346.77
2023-03-31T03:20:10.871Z,50329.98
2023-03-31T03:22:40.752Z,50334.78
2023-03-31T03:25:12.086Z,50343.98
2023-03-31T03:27:40.954Z,50333.98
2023-03-31T03:30:11.913Z,50332.78
2023-03-31T03:32:40.103Z,50337.98
2023-03-31T03:35:09.219Z,50332.38
2023-03-31T03:37:38.061Z,50347.18
2023-03-31T03:40:07.103Z,50343.18
2023-03-31T03:42:35.687Z,50336.77
2023-03-31T03:45:04.343Z,50333.18
2023-03-31T03:47:33.137Z,50338.78
2023-03-31T03:50:01.352Z,50347.98
2023-03-31T03:52:29.656Z,50348.77
2023-03-31T03:54:57.947Z,50345.18
2023-03-31T03:57:26.648Z,50348.38
2023-03-31T03:59:55.098Z,50342.38
2023-03-31T04:02:25.023Z,50318.79
2023-03-31T04:04:55.373Z,50337.98
2023-03-31T04:07:23.765Z,50326.78
2023-03-31T04:09:51.976Z,50329.98
2023-03-31T04:12:20.369Z,50331.59
2023-03-31T04:14:49.235Z,50331.98
2023-03-31T04:17:17.476Z,50330.38
2023-03-31T04:19:50.959Z,50317.98
2023-03-31T04:22:20.892Z,50322.38
2023-03-31T04:24:52.918Z,50306.39
2023-03-31T04:27:21.291Z,50314.38
2023-03-31T04:29:54.910Z,50313.18
2023-03-31T04:32:23.957Z,50324.38
2023-03-31T04:34:52.256Z,50305.59
2023-03-31T04:37:22.765Z,50325.59
2023-03-31T04:39:54.749Z,50310.79
2023-03-31T04:42:24.669Z,50309.19
2023-03-31T04:44:52.892Z,50297.59
2023-03-31T04:47:21.281Z,50299.99
2023-03-31T04:49:51.548Z,50317.18
2023-03-31T04:52:20.904Z,50319.98
2023-03-31T04:54:49.115Z,50309.59
2023-03-31T04:57:18.186Z,50313.99
2023-03-31T04:59:46.955Z,50312.39
2023-03-31T05:02:24.346Z,50300.79
2023-03-31T05:04:53.922Z,50303.59
2023-03-31T05:07:22.213Z,50296.79
2023-03-31T05:09:50.605Z,50305.99
2023-03-31T05:12:18.757Z,50305.18
2023-03-31T05:14:47.005Z,50294.39
2023-03-31T05:17:19.171Z,50292.39
2023-03-31T05:19:47.430Z,50316.39
2023-03-31T05:22:17.276Z,50303.19
2023-03-31T05:24:45.453Z,50299.59
2023-03-31T05:27:16.375Z,50321.18
2023-03-31T05:29:44.567Z,50323.18
2023-03-31T05:32:13.050Z,50302.79
2023-03-31T05:34:43.558Z,50309.19
2023-03-31T05:37:13.331Z,50295.59
2023-03-31T05:39:41.936Z,50297.99
2023-03-31T05:42:10.454Z,50309.59
2023-03-31T05:44:39.924Z,50289.20
2023-03-31T05:47:09.324Z,50314.38
2023-03-31T05:49:38.835Z,50299.20
2023-03-31T05:52:08.676Z,50309.59
2023-03-31T05:54:37.822Z,50277.60
2023-03-31T05:57:06.176Z,50298.39
2023-03-31T05:59:35.741Z,50287.59
2023-03-31T06:02:05.258Z,50296.79
2023-03-31T06:04:34.050Z,50297.59
2023-03-31T06:07:02.341Z,50297.99
2023-03-31T06:09:31.287Z,50295.20
2023-03-31T06:11:59.657Z,50294.39
2023-03-31T06:14:29.540Z,50274.40
2023-03-31T06:16:58.217Z,50289.99
2023-03-31T06:19:27.399Z,50280.40
2023-03-31T06:21:59.096Z,50292.39
2023-03-31T06:24:27.409Z,50275.20
2023-03-31T06:26:56.144Z,50275.20
2023-03-31T06:29:24.659Z,50287.99
2023-03-31T06:31:52.987Z,50287.99
2023-03-31T06:34:22.598Z,50285.99
2023-03-31T06:36:51.321Z,50275.20
2023-03-31T06:39:20.402Z,50260.80
2023-03-31T06:41:48.914Z,50269.20
2023-03-31T06:44:23.338Z,50259.61
2023-03-31T06:46:51.702Z,50265.60
2023-03-31T06:49:20.561Z,50260.00
2023-03-31T06:51:48.847Z,50243.21
2023-03-31T06:54:17.139Z,50250.80
2023-03-31T06:56:46.323Z,50252.80
2023-03-31T06:59:14.746Z,50254.80
2023-03-31T07:01:43.187Z,50228.02
2023-03-31T07:04:12.139Z,50240.80
2023-03-31T07:06:41.865Z,50240.41
2023-03-31T07:09:11.094Z,50209.22
2023-03-31T07:11:39.461Z,50227.21
2023-03-31T07:14:07.734Z,50210.42
2023-03-31T07:16:36.473Z,50203.62
2023-03-31T07:19:06.100Z,50202.02
2023-03-31T07:21:41.106Z,50194.43
2023-03-31T07:24:09.356Z,50184.03
2023-03-31T07:26:42.727Z,50196.43
2023-03-31T07:29:11.344Z,50172.43
2023-03-31T07:31:39.948Z,50182.43
2023-03-31T07:34:08.492Z,50186.03
2023-03-31T07:36:37.028Z,50182.03
2023-03-31T07:39:06.760Z,50170.03
2023-03-31T07:41:36.655Z,50176.43
2023-03-31T07:44:05.032Z,50180.03
2023-03-31T07:46:34.051Z,50164.43
2023-03-31T07:49:03.748Z,50180.03
2023-03-31T07:51:32.059Z,50170.84
2023-03-31T07:54:00.511Z,50182.43
2023-03-31T07:56:28.912Z,50175.63
2023-03-31T07:58:57.863Z,50190.03
2023-03-31T08:01:30.137Z,50183.63
2023-03-31T08:03:59.382Z,50170.84
2023-03-31T08:06:30.114Z,50162.44
2023-03-31T08:08:59.436Z,50170.44
2023-03-31T08:11:29.508Z,50174.43
2023-03-31T08:13:57.820Z,50172.83
2023-03-31T08:16:30.482Z,50173.63
2023-03-31T08:18:59.039Z,50164.44
2023-03-31T08:21:29.373Z,50184.03
2023-03-31T08:23:58.273Z,50170.43
2023-03-31T08:26:26.694Z,50192.43
2023-03-31T08:28:54.962Z,50188.43
2023-03-31T08:31:26.695Z,50177.63
2023-03-31T08:33:55.934Z,50172.43
2023-03-31T08:36:25.252Z,50184.43
2023-03-31T08:38:54.424Z,50183.63
2023-03-31T08:41:57.323Z,50183.23
2023-03-31T08:44:25.586Z,50201.23
2023-03-31T08:46:57.414Z,50194.43
2023-03-31T08:49:28.540Z,50191.23
2023-03-31T08:52:04.434Z,50194.83
2023-03-31T08:54:43.849Z,50184.43
2023-03-31T08:57:30.811Z,50197.23
2023-03-31T09:00:07.255Z,50187.63
2023-03-31T09:03:12.219Z,50192.03
2023-03-31T09:06:30.551Z,50194.82
2023-03-31T09:09:03.795Z,50212.82
2023-03-31T09:11:52.629Z,50210.42
2023-03-31T09:14:38.076Z,50204.82
2023-03-31T09:17:27.277Z,50216.02
2023-03-31T09:20:09.533Z,50216.02
2023-03-31T09:22:47.462Z,50222.41
2023-03-31T09:25:27.318Z,50228.81
2023-03-31T09:27:58.039Z,50219.62
2023-03-31T09:30:35.976Z,50206.42
2023-03-31T09:33:32.767Z,50225.62
2023-03-31T09:36:02.413Z,50204.82
2023-03-31T09:38:31.453Z,50213.22
2023-03-31T09:41:02.760Z,50196.43
2023-03-31T09:43:35.970Z,50191.63
2023-03-31T09:46:15.418Z,50216.41
2023-03-31T09:48:52.427Z,50207.62
2023-03-31T09:51:30.946Z,50213.22
2023-03-31T09:54:03.137Z,50222.81
2023-03-31T09:56:53.970Z,50198.82
2023-03-31T09:59:41.764Z,50226.41
2023-03-31T10:02:38.069Z,50202.42
2023-03-31T10:05:25.219Z,50224.82
2023-03-31T10:08:09.240Z,50238.01
2023-03-31T10:10:38.328Z,50242.01
2023-03-31T10:13:11.153Z,50218.42
2023-03-31T10:15:42.804Z,50208.82
2023-03-31T10:18:20.018Z,50213.62
2023-03-31T10:20:53.231Z,50220.41
2023-03-31T10:23:33.061Z,50223.21
2023-03-31T10:26:04.054Z,50212.82
2023-03-31T10:28:35.343Z,50232.81
2023-03-31T10:31:06.645Z,50219.21
2023-03-31T10:33:42.829Z,50221.22
2023-03-31T10:36:27.862Z,50222.41
2023-03-31T10:38:58.070Z,50245.61
2023-03-31T10:41:29.436Z,50221.22
2023-03-31T10:43:59.971Z,50216.41
2023-03-31T10:46:53.188Z,50236.81
2023-03-31T10:49:21.672Z,50220.82
2023-03-31T10:51:55.438Z,50223.62
2023-03-31T10:54:24.179Z,50233.21
2023-03-31T10:56:58.066Z,50227.21
2023-03-31T10:59:38.843Z,50226.02
2023-03-31T11:02:16.364Z,50232.81
2023-03-31T11:04:56.755Z,50254.41
2023-03-31T11:07:29.825Z,50242.41
2023-03-31T11:10:17.102Z,50233.61
2023-03-31T11:12:56.385Z,50233.61
2023-03-31T11:15:55.414Z,50226.82
2023-03-31T11:19:05.962Z,50240.01
2023-03-31T11:21:53.467Z,50237.61
2023-03-31T11:24:42.560Z,50214.42
2023-03-31T11:27:17.353Z,50218.02
2023-03-31T11:29:51.612Z,50222.01
2023-03-31T11:32:34.178Z,50219.21
2023-03-31T11:35:18.135Z,50226.41
2023-03-31T11:38:17.840Z,50196.42
2023-03-31T11:41:17.339Z,50214.02
2023-03-31T11:43:49.173Z,50202.02
2023-03-31T11:46:37.944Z,50219.62
2023-03-31T11:49:28.875Z,50215.62
2023-03-31T11:52:03.311Z,50233.21
2023-03-31T11:54:56.195Z,50208.82
2023-03-31T11:57:32.144Z,50199.63
2023-03-31T12:00:09.376Z,50226.02
2023-03-31T12:02:58.686Z,50220.82
2023-03-31T12:05:28.887Z,50212.02
2023-03-31T12:08:10.939Z,50209.62
2023-03-31T12:10:48.395Z,50225.61
2023-03-31T12:13:30.006Z,50218.81
2023-03-31T12:16:23.438Z,50220.02
2023-03-31T12:19:06.074Z,50210.42
2023-03-31T12:21:37.961Z,50219.21
2023-03-31T12:24:08.400Z,50223.21
2023-03-31T12:26:59.129Z,50222.81
2023-03-31T12:30:05.918Z,50222.02
2023-03-31T12:32:40.641Z,50215.22
2023-03-31T12:35:17.931Z,50224.82
2023-03-31T12:37:52.030Z,50229.21
2023-03-31T12:40:36.010Z,50228.41
2023-03-31T12:43:17.702Z,50215.22
2023-03-31T12:45:55.977Z,50242.41
2023-03-31T12:48:33.791Z,50230.01
2023-03-31T12:51:31.267Z,50234.81
2023-03-31T12:54:10.268Z,50231.21
2023-03-31T12:57:14.187Z,50230.01
2023-03-31T12:59:45.243Z,50230.81
2023-03-31T13:02:15.238Z,50239.61
2023-03-31T13:04:44.939Z,50225.62
2023-03-31T13:07:37.819Z,50228.41
2023-03-31T13:10:18.603Z,50232.81
2023-03-31T13:13:03.874Z,50216.42
2023-03-31T13:15:33.315Z,50232.81
2023-03-31T13:18:07.072Z,50225.62
2023-03-31T13:20:41.817Z,50245.61
2023-03-31T13:23:31.593Z,50242.01
2023-03-31T13:26:01.712Z,50245.21
2023-03-31T13:28:42.548Z,50233.61
2023-03-31T13:31:14.533Z,50241.61
2023-03-31T13:33:59.896Z,50232.41
2023-03-31T13:36:34.474Z,50230.81
2023-03-31T13:39:29.331Z,50245.61
2023-03-31T13:42:20.938Z,50261.20
2023-03-31T13:44:55.991Z,50242.81
2023-03-31T13:47:59.572Z,50259.20
2023-03-31T13:50:46.331Z,50245.21
2023-03-31T13:53:47.559Z,50266.80
2023-03-31T13:56:43.329Z,50250.80
2023-03-31T13:59:15.902Z,50244.81
2023-03-31T14:02:05.831Z,50246.01
2023-03-31T14:05:09.201Z,50256.00
2023-03-31T14:07:44.704Z,50248.01
2023-03-31T14:10:24.672Z,50233.21
2023-03-31T14:12:52.925Z,50244.01
2023-03-31T14:15:21.809Z,50238.01
2023-03-31T14:17:50.160Z,50226.02
2023-03-31T14:20:33.303Z,50247.21
2023-03-31T14:23:19.939Z,50231.21
2023-03-31T14:26:15.512Z,50218.41
2023-03-31T14:28:51.600Z,50231.61
2023-03-31T14:31:35.365Z,50238.81
2023-03-31T14:34:29.118Z,50227.61
2023-03-31T14:37:10.288Z,50226.82
2023-03-31T14:39:45.475Z,50243.21
2023-03-31T14:42:19.107Z,50233.21
2023-03-31T14:44:48.754Z,50220.42
2023-03-31T14:47:23.026Z,50249.61
2023-03-31T14:50:15.548Z,50223.62
2023-03-31T14:52:54.617Z,50240.01
2023-03-31T14:55:39.342Z,50236.81
2023-03-31T14:58:30.581Z,50245.21
2023-03-31T15:00:59.562Z,50250.01
2023-03-31T15:03:28.109Z,50237.61
2023-03-31T15:05:59.021Z,50236.41
2023-03-31T15:08:29.880Z,50245.21
2023-03-31T15:14:00.677Z,50233.21
2023-03-31T15:16:42.721Z,50229.21
2023-03-31T15:19:19.455Z,50233.21
2023-03-31T15:21:56.565Z,50236.01
2023-03-31T15:24:24.962Z,50233.21
2023-03-31T15:27:23.501Z,50240.41
2023-03-31T15:30:01.940Z,50231.61
2023-03-31T15:32:35.399Z,50242.01
2023-03-31T15:35:18.703Z,50242.01
2023-03-31T15:37:54.428Z,50242.81
2023-03-31T15:40:44.219Z,50248.41
2023-03-31T15:45:52.698Z,50232.81
2023-03-31T15:48:49.435Z,50252.41
2023-03-31T15:51:25.063Z,50255.21
2023-03-31T15:53:54.736Z,50247.61
2023-03-31T15:56:33.535Z,50229.21
2023-03-31T15:59:06.258Z,50241.21
2023-03-31T16:01:46.532Z,50250.01
2023-03-31T16:04:18.225Z,50252.01
2023-03-31T16:07:03.830Z,50245.21
2023-03-31T16:09:47.891Z,50256.80
2023-03-31T16:12:43.766Z,50271.60
2023-03-31T16:15:18.734Z,50251.61
2023-03-31T16:17:52.452Z,50265.20
2023-03-31T16:20:27.254Z,50258.80
2023-03-31T16:23:01.298Z,50265.60
2023-03-31T16:25:31.916Z,50261.20
2023-03-31T16:28:02.803Z,50275.20
2023-03-31T16:30:42.515Z,50263.61
2023-03-31T16:33:17.780Z,50260.80
2023-03-31T16:35:53.746Z,50282.39
2023-03-31T16:38:25.164Z,50276.80
2023-03-31T16:40:56.824Z,50265.20
2023-03-31T16:43:31.309Z,50262.01
2023-03-31T16:46:06.413Z,50273.60
2023-03-31T16:48:37.462Z,50275.20
2023-03-31T16:51:05.946Z,50267.60
2023-03-31T16:53:36.001Z,50272.00
2023-03-31T16:56:08.528Z,50272.00
2023-03-31T16:58:38.773Z,50284.39
2023-03-31T17:01:08.594Z,50274.40
2023-03-31T17:03:38.963Z,50277.20
2023-03-31T17:06:13.347Z,50285.20
2023-03-31T17:08:44.125Z,50258.41
2023-03-31T17:11:14.974Z,50274.40
2023-03-31T17:13:45.343Z,50284.79
2023-03-31T17:16:22.174Z,50282.79
2023-03-31T17:18:58.389Z,50270.40
2023-03-31T17:21:27.514Z,50278.40
2023-03-31T17:23:55.954Z,50274.00
2023-03-31T17:26:27.367Z,50278.79
2023-03-31T17:28:55.640Z,50279.99
2023-03-31T17:31:24.932Z,50266.40
2023-03-31T17:33:53.511Z,50279.20
2023-03-31T17:36:22.503Z,50271.60
2023-03-31T17:38:51.813Z,50274.80
2023-03-31T17:41:26.467Z,50281.59
2023-03-31T17:43:56.938Z,50268.00
2023-03-31T17:46:26.036Z,50273.20
2023-03-31T17:48:56.714Z,50264.40
2023-03-31T17:51:25.101Z,50268.40
2023-03-31T17:53:54.704Z,50276.00
2023-03-31T17:56:27.473Z,50282.79
2023-03-31T17:58:57.599Z,50284.79
2023-03-31T18:01:27.870Z,50269.60
2023-03-31T18:04:01.448Z,50288.39
2023-03-31T18:06:32.115Z,50276.80
2023-03-31T18:09:05.822Z,50272.00
2023-03-31T18:11:34.650Z,50274.80
2023-03-31T18:14:03.069Z,50282.00
2023-03-31T18:16:31.957Z,50276.00
2023-03-31T18:19:06.370Z,50282.00
2023-03-31T18:21:35.628Z,50275.60
2023-03-31T18:24:04.365Z,50287.20
2023-03-31T18:26:33.325Z,50263.60
2023-03-31T18:29:01.680Z,50256.80
2023-03-31T18:31:33.431Z,50261.60
2023-03-31T18:34:05.075Z,50262.40
2023-03-31T18:36:35.833Z,50276.80
2023-03-31T18:39:04.310Z,50281.60
2023-03-31T18:41:37.535Z,50285.60
2023-03-31T18:44:06.145Z,50268.00
2023-03-31T18:46:42.577Z,50270.00
2023-03-31T18:49:14.656Z,50285.20
2023-03-31T18:51:42.940Z,50269.20
2023-03-31T18:54:11.694Z,50275.20
2023-03-31T18:56:41.601Z,50275.20
2023-03-31T18:59:10.719Z,50263.60
2023-03-31T19:01:40.604Z,50267.20
2023-03-31T19:04:09.846Z,50271.20
2023-03-31T19:06:38.113Z,50264.80
2023-03-31T19:09:07.179Z,50283.60
2023-03-31T19:11:36.405Z,50283.20
2023-03-31T19:14:05.226Z,50273.60
2023-03-31T19:16:40.284Z,50281.20
2023-03-31T19:19:10.360Z,50281.20
2023-03-31T19:21:39.507Z,50275.20
2023-03-31T19:24:09.354Z,50266.00
2023-03-31T19:26:37.887Z,50258.80
2023-03-31T19:29:06.376Z,50282.00
2023-03-31T19:31:38.580Z,50270.00
2023-03-31T19:34:11.788Z,50280.40
2023-03-31T19:36:41.924Z,50260.01
2023-03-31T19:39:11.955Z,50277.20
2023-03-31T19:41:40.731Z,50268.80
2023-03-31T19:44:09.046Z,50269.60
2023-03-31T19:46:38.166Z,50277.60
2023-03-31T19:49:06.540Z,50270.40
2023-03-31T19:51:34.781Z,50284.79
2023-03-31T19:54:03.206Z,50268.80
2023-03-31T19:56:32.472Z,50283.20
2023-03-31T19:59:00.913Z,50279.59
2023-03-31T20:01:29.633Z,50273.60
2023-03-31T20:04:00.961Z,50271.60
2023-03-31T20:06:32.494Z,50280.40
2023-03-31T20:09:02.174Z,50280.00
2023-03-31T20:11:32.313Z,50287.59
2023-03-31T20:14:01.418Z,50287.20
2023-03-31T20:16:31.635Z,50268.80
2023-03-31T20:19:04.459Z,50281.20
2023-03-31T20:21:35.844Z,50275.20
2023-03-31T20:24:04.709Z,50272.00
2023-03-31T20:26:34.784Z,50284.00
2023-03-31T20:29:04.393Z,50260.80
2023-03-31T20:31:37.884Z,50258.00
2023-03-31T20:34:12.632Z,50273.20
2023-03-31T20:36:43.424Z,50283.20
2023-03-31T20:39:14.369Z,50288.79
2023-03-31T20:41:43.672Z,50271.60
2023-03-31T20:44:15.793Z,50276.40
2023-03-31T20:46:45.027Z,50278.79
2023-03-31T20:49:13.691Z,50273.60
2023-03-31T20:51:42.799Z,50270.40
2023-03-31T20:54:12.087Z,50298.39
2023-03-31T20:56:41.834Z,50284.79
2023-03-31T20:59:15.250Z,50278.00
2023-03-31T21:01:45.415Z,50282.00
2023-03-31T21:04:14.165Z,50273.60
2023-03-31T21:06:47.565Z,50276.00
2023-03-31T21:09:17.277Z,50272.00
2023-03-31T21:11:46.022Z,50284.40
2023-03-31T21:14:15.977Z,50279.20
2023-03-31T21:16:45.176Z,50283.99
2023-03-31T21:19:13.521Z,50270.00
2023-03-31T21:21:43.485Z,50278.39
2023-03-31T21:24:12.850Z,50285.99
2023-03-31T21:26:41.315Z,50280.80
2023-03-31T21:29:09.769Z,50258.80
2023-03-31T21:31:38.064Z,50289.20
2023-03-31T21:34:06.437Z,50261.20
2023-03-31T21:36:35.423Z,50269.20
2023-03-31T21:39:05.240Z,50284.39
2023-03-31T21:41:33.612Z,50277.20
2023-03-31T21:44:03.018Z,50290.39
2023-03-31T21:46:34.859Z,50278.40
2023-03-31T21:49:04.024Z,50285.99
2023-03-31T21:51:32.854Z,50273.20
2023-03-31T21:54:01.113Z,50277.59
2023-03-31T21:56:32.440Z,50292.39
2023-03-31T21:59:02.520Z,50281.20
2023-03-31T22:01:31.665Z,50298.39
2023-03-31T22:04:01.508Z,50297.99
2023-03-31T22:06:29.870Z,50292.39
2023-03-31T22:08:58.076Z,50280.40
2023-03-31T22:11:27.275Z,50303.59
2023-03-31T22:13:55.517Z,50293.99
2023-03-31T22:16:23.837Z,50287.60
2023-03-31T22:18:53.661Z,50303.19
2023-03-31T22:21:25.731Z,50301.59
2023-03-31T22:23:56.525Z,50278.80
2023-03-31T22:26:27.239Z,50288.00
2023-03-31T22:28:56.152Z,50273.60
2023-03-31T22:31:26.459Z,50295.19
2023-03-31T22:33:55.045Z,50284.79
2023-03-31T22:36:23.392Z,50278.80
2023-03-31T22:38:51.697Z,50301.19
2023-03-31T22:41:19.889Z,50301.19
2023-03-31T22:43:48.171Z,50292.79
2023-03-31T22:46:16.763Z,50312.39
2023-03-31T22:48:49.748Z,50291.20
2023-03-31T22:51:18.287Z,50295.19
2023-03-31T22:53:54.797Z,50285.99
2023-03-31T22:56:24.700Z,50287.20
2023-03-31T22:58:57.061Z,50281.20
2023-03-31T23:01:25.556Z,50285.99
2023-03-31T23:03:55.379Z,50300.39
2023-03-31T23:06:24.040Z,50299.19
2023-03-31T23:08:52.673Z,50299.19
2023-03-31T23:11:21.062Z,50286.40
2023-03-31T23:13:49.370Z,50295.20
2023-03-31T23:16:17.850Z,50297.59
2023-03-31T23:18:48.160Z,50299.59
2023-03-31T23:21:21.785Z,50289.20
2023-03-31T23:23:55.757Z,50299.19
2023-03-31T23:26:26.445Z,50305.59
2023-03-31T23:28:55.637Z,50297.19
2023-03-31T23:31:27.219Z,50305.59
2023-03-31T23:33:58.030Z,50310.39
2023-03-31T23:36:27.633Z,50313.59
2023-03-31T23:38:59.169Z,50310.39
2023-03-31T23:41:27.529Z,50297.20
2023-03-31T23:43:57.875Z,50295.99
2023-03-31T23:46:26.642Z,50291.99
2023-03-31T23:48:56.013Z,50306.79
2023-03-31T23:51:26.810Z,50319.58
2023-03-31T23:53:55.032Z,50301.59
2023-03-31T23:56:23.710Z,50304.79
2023-03-31T23:58:51.950Z,50319.18
